KHSE

Billy Mitchell Airport

Hatteras, North Carolina, USA
METAR KHSE 220351Z AUTO VRB06G17KT CLR M01/M15 A3054 RMK AO2 SLP340 T10061150 TSNO $
Observed Flight Rules
Jan-22 @ 03:51 UTC (21 minutes ago)
Wind Clouds
Variable at 6 knots
 Gusting to 17 knots
  • Clear skies
Temperatures Readings
Current -1°C / 30°F
Dewpoint -15°C / 5°F
Humidity 34%
Altimeter 30.54" Hg
Pressure 1034 hPa
Elevation 3
METAR KHSE 220351Z AUTO VRB06G17KT CLR M01/M15 A3054 RMK AO2 SLP340 T10061150 TSNO $
Observed Flight Rules
Jan-22 @ 03:51 UTC
(21 minutes ago)
Wind
Variable at 6 knots
 Gusting to 17 knots
Clouds
  • Clear skies
Temperature Dewpoint
-1°C / 30°F -15°C / 5°F
Humidity Altimeter Pressure
34% 30.54" Hg 1034 hPa